Time;durP1;ratioP1;P1;durP2;ratioP2;P2;SDS_P1;SDS_P2;PMS_P1;PMS_P2;Temp;Humidity;BMP_temperature;BMP_pressure;BME280_temperature;BME280_humidity;BME280_pressure;Samples;Min_cycle;Max_cycle;Signal;HPM_P1;HPM_P2
2021/12/15 00:00:16;;;;;;;15.23;5.65;;;;;;;0.65;100.00;94141.75;2115408;28;20034;-89
2021/12/15 00:01:17;;;;;;;13.48;5.35;;;;;;;0.65;100.00;94142.50;2118814;27;20051;-87
2021/12/15 00:02:20;;;;;;;10.90;5.10;;;;;;;0.70;100.00;94139.69;2129332;27;20026;-87
2021/12/15 00:03:24;;;;;;;8.73;5.43;;;;;;;0.83;100.00;94139.69;2127487;27;20075;-87
2021/12/15 00:04:25;;;;;;;18.77;5.88;;;;;;;0.86;100.00;94147.69;2124383;27;20030;-86
2021/12/15 00:05:27;;;;;;;27.50;5.55;;;;;;;0.81;100.00;94142.66;2123747;27;20106;-88
2021/12/15 00:06:28;;;;;;;16.23;5.43;;;;;;;0.71;100.00;94133.31;2119540;27;20107;-86
2021/12/15 00:07:28;;;;;;;10.30;5.50;;;;;;;0.74;100.00;94134.53;2128384;27;20041;-88
2021/12/15 00:08:29;;;;;;;11.77;5.30;;;;;;;0.79;100.00;94138.78;2123756;27;20079;-88
2021/12/15 00:09:30;;;;;;;16.67;5.72;;;;;;;0.71;100.00;94130.69;2123469;27;20043;-89
2021/12/15 00:10:30;;;;;;;19.02;5.80;;;;;;;0.84;100.00;94134.09;2127613;27;20092;-90
2021/12/15 00:11:36;;;;;;;30.10;5.53;;;;;;;0.81;100.00;94128.72;2120201;27;20487;-88
2021/12/15 00:12:37;;;;;;;8.05;5.57;;;;;;;0.76;100.00;94132.34;2118773;27;20027;-87
2021/12/15 00:13:39;;;;;;;16.40;6.30;;;;;;;0.77;100.00;94136.50;2121175;27;20095;-89
2021/12/15 00:14:42;;;;;;;15.75;5.25;;;;;;;0.77;100.00;94138.38;2117928;27;20031;-86
2021/12/15 00:15:44;;;;;;;16.73;6.13;;;;;;;0.74;100.00;94131.88;2121373;27;20030;-88
2021/12/15 00:16:47;;;;;;;14.23;5.95;;;;;;;0.67;100.00;94136.94;2125222;27;20027;-85
2021/12/15 00:17:47;;;;;;;15.35;5.78;;;;;;;0.70;100.00;94137.06;2124915;27;20050;-87
2021/12/15 00:18:48;;;;;;;19.38;5.93;;;;;;;0.63;100.00;94136.06;2122484;27;20035;-88
2021/12/15 00:19:48;;;;;;;16.42;6.03;;;;;;;0.61;100.00;94141.63;2123505;27;20069;-86
2021/12/15 00:20:49;;;;;;;12.23;5.25;;;;;;;0.62;100.00;94139.78;2122619;27;20028;-87
2021/12/15 00:21:49;;;;;;;13.07;5.40;;;;;;;0.67;100.00;94136.94;2123616;27;20050;-88
2021/12/15 00:22:52;;;;;;;8.48;5.32;;;;;;;0.70;100.00;94137.06;2124858;27;20038;-88
2021/12/15 00:23:53;;;;;;;17.33;4.45;;;;;;;0.68;100.00;94141.88;2123617;27;20357;-86
2021/12/15 00:24:53;;;;;;;16.98;4.38;;;;;;;0.68;100.00;94138.47;2115213;28;20049;-87
2021/12/15 00:25:54;;;;;;;6.07;4.57;;;;;;;0.70;100.00;94138.91;2123769;27;20030;-86
2021/12/15 00:27:11;;;;;;;11.95;4.88;;;;;;;0.83;100.00;94145.72;2123813;27;20042;-87
2021/12/15 00:28:12;;;;;;;14.15;4.97;;;;;;;0.85;100.00;94146.16;2125581;27;20023;-87
2021/12/15 00:29:12;;;;;;;9.95;5.05;;;;;;;0.86;100.00;94144.28;2123638;27;20175;-88
2021/12/15 00:30:13;;;;;;;10.15;5.00;;;;;;;0.83;100.00;94145.72;2123411;27;20042;-88
2021/12/15 00:31:14;;;;;;;15.95;5.45;;;;;;;0.84;100.00;94142.00;2132190;27;20026;-88
2021/12/15 00:32:14;;;;;;;27.67;5.32;;;;;;;0.82;100.00;94148.69;2132158;27;20026;-86
2021/12/15 00:33:15;;;;;;;8.65;5.38;;;;;;;0.81;100.00;94144.50;2123662;27;20460;-85
2021/12/15 00:34:15;;;;;;;13.70;4.90;;;;;;;0.79;100.00;94141.44;2132346;27;20480;-87
2021/12/15 00:35:16;;;;;;;11.95;5.22;;;;;;;0.85;100.00;94145.41;2128964;27;20087;-86
2021/12/15 00:36:17;;;;;;;12.20;5.97;;;;;;;0.88;100.00;94157.88;2122083;27;20114;-87
2021/12/15 00:37:19;;;;;;;7.32;5.80;;;;;;;0.88;100.00;94150.78;2129292;27;20026;-87
2021/12/15 00:38:20;;;;;;;19.25;5.63;;;;;;;0.86;100.00;94149.56;2126792;27;20368;-88
2021/12/15 00:39:22;;;;;;;22.25;5.93;;;;;;;0.81;100.00;94160.31;2120002;27;20042;-87
2021/12/15 00:40:24;;;;;;;12.95;5.22;;;;;;;0.81;100.00;94152.41;2127439;27;20543;-88
2021/12/15 00:41:25;;;;;;;28.40;6.60;;;;;;;0.71;100.00;94158.88;2132123;27;20683;-87
2021/12/15 00:42:26;;;;;;;23.95;5.28;;;;;;;0.72;100.00;94163.03;2119569;27;20047;-86
2021/12/15 00:43:26;;;;;;;17.52;6.30;;;;;;;0.69;100.00;94153.16;2127764;27;20097;-88
2021/12/15 00:44:27;;;;;;;7.50;5.57;;;;;;;0.69;100.00;94153.91;2127718;27;20026;-88
2021/12/15 00:45:28;;;;;;;13.43;5.57;;;;;;;0.67;100.00;94160.63;2123429;27;20034;-87
2021/12/15 00:46:29;;;;;;;22.98;6.00;;;;;;;0.71;100.00;94162.28;2123538;27;20027;-88
2021/12/15 00:47:30;;;;;;;7.68;5.85;;;;;;;0.73;100.00;94159.31;2127689;27;20019;-87
2021/12/15 00:48:31;;;;;;;25.60;6.10;;;;;;;0.77;100.00;94162.06;2127268;27;20080;-88
2021/12/15 00:49:32;;;;;;;8.60;5.90;;;;;;;0.72;100.00;94163.81;2118881;27;20487;-88
2021/12/15 00:50:35;;;;;;;8.85;5.00;;;;;;;0.76;100.00;94166.56;2123760;27;20050;-88
2021/12/15 00:51:37;;;;;;;14.50;6.65;;;;;;;0.83;100.00;94163.34;2123246;27;20410;-89
2021/12/15 00:52:41;;;;;;;20.77;6.07;;;;;;;0.77;100.00;94165.44;2120787;27;20495;-88
2021/12/15 00:53:41;;;;;;;19.50;5.65;;;;;;;0.72;100.00;94161.16;2123813;27;20023;-88
2021/12/15 00:54:42;;;;;;;8.43;5.32;;;;;;;0.77;100.00;94162.81;2126000;27;20313;-88
2021/12/15 00:55:43;;;;;;;28.70;6.28;;;;;;;0.70;100.00;94158.09;2130625;27;20030;-89
2021/12/15 00:56:44;;;;;;;17.35;5.65;;;;;;;0.68;100.00;94157.66;2124926;27;20084;-88
2021/12/15 00:57:45;;;;;;;10.48;6.00;;;;;;;0.72;100.00;94152.50;2115059;28;20019;-88
2021/12/15 00:58:45;;;;;;;25.42;6.00;;;;;;;0.66;100.00;94153.81;2130250;27;20382;-86
2021/12/15 00:59:46;;;;;;;19.42;5.57;;;;;;;0.64;100.00;94151.50;2127637;27;20030;-87
2021/12/15 01:01:01;;;;;;;7.05;4.65;;;;;;;0.62;100.00;94158.97;2131944;27;20026;-86
2021/12/15 01:02:08;;;;;;;11.32;5.80;;;;;;;0.63;100.00;94159.75;2128372;27;20029;-86
2021/12/15 01:03:09;;;;;;;20.75;5.28;;;;;;;0.66;100.00;94153.81;2124116;27;20020;-87
2021/12/15 01:04:13;;;;;;;12.65;5.82;;;;;;;0.73;100.00;94151.41;2123365;27;20027;-86
2021/12/15 01:05:18;;;;;;;8.65;5.10;;;;;;;0.82;100.00;94157.34;2129570;27;20482;-89
2021/12/15 01:06:20;;;;;;;11.35;5.60;;;;;;;0.80;100.00;94156.16;2118157;27;20174;-85
2021/12/15 01:07:21;;;;;;;9.95;5.00;;;;;;;0.65;100.00;94147.00;2122931;27;20023;-87
2021/12/15 01:08:26;;;;;;;9.35;5.18;;;;;;;0.65;100.00;94153.03;2118315;27;20348;-89
2021/12/15 01:09:40;;;;;;;11.40;5.15;;;;;;;0.68;100.00;94152.38;2123879;27;20051;-88
2021/12/15 01:20:40;;;;;;;10.57;4.70;;;;;;;0.71;100.00;94150.97;2129256;27;20115;-86
2021/12/15 01:21:41;;;;;;;11.73;5.30;;;;;;;0.74;100.00;94147.66;2129108;27;20506;-87
2021/12/15 01:22:45;;;;;;;15.10;5.47;;;;;;;0.69;100.00;94153.91;2123393;27;20023;-88
2021/12/15 01:23:50;;;;;;;14.93;6.20;;;;;;;0.64;100.00;94154.13;2123948;27;20053;-86
2021/12/15 01:24:55;;;;;;;19.35;5.85;;;;;;;0.69;100.00;94146.03;2124600;27;20110;-86
2021/12/15 01:26:02;;;;;;;8.65;6.00;;;;;;;0.70;100.00;94154.69;2115582;27;20035;-86
2021/12/15 01:27:06;;;;;;;12.45;5.90;;;;;;;0.68;100.00;94154.25;2120464;27;20659;-87
2021/12/15 01:28:11;;;;;;;9.52;6.25;;;;;;;0.67;100.00;94158.75;2123567;27;20074;-86
2021/12/15 01:29:12;;;;;;;13.18;6.57;;;;;;;0.70;100.00;94154.69;2123660;27;20637;-87
2021/12/15 01:30:15;;;;;;;11.30;5.90;;;;;;;0.79;100.00;94162.47;2129266;27;20053;-89
2021/12/15 01:31:19;;;;;;;20.35;6.07;;;;;;;0.87;100.00;94153.72;2115038;27;20106;-86
2021/12/15 01:32:21;;;;;;;14.95;7.13;;;;;;;0.77;100.00;94160.19;2118047;27;20021;-87
2021/12/15 01:33:24;;;;;;;28.73;7.05;;;;;;;0.66;100.00;94165.13;2122988;27;20025;-85
2021/12/15 01:34:24;;;;;;;9.75;5.95;;;;;;;0.74;100.00;94161.59;2114617;28;20026;-87
2021/12/15 01:35:26;;;;;;;23.20;7.30;;;;;;;0.81;100.00;94160.31;2118281;27;20056;-86
2021/12/15 01:36:26;;;;;;;21.40;7.38;;;;;;;0.79;100.00;94163.28;2114447;28;20028;-87
2021/12/15 01:37:27;;;;;;;13.68;6.90;;;;;;;0.80;100.00;94159.53;2118630;27;20015;-87
2021/12/15 01:38:31;;;;;;;13.23;7.43;;;;;;;0.77;100.00;94162.06;2123013;27;20030;-86
2021/12/15 01:39:37;;;;;;;23.88;6.93;;;;;;;0.78;100.00;94160.94;2123154;27;20118;-86
2021/12/15 01:40:43;;;;;;;33.47;7.45;;;;;;;0.82;100.00;94162.59;2115237;27;20049;-87
2021/12/15 01:41:44;;;;;;;22.30;8.05;;;;;;;0.66;100.00;94165.13;2115458;28;20024;-88
2021/12/15 01:42:45;;;;;;;15.73;7.20;;;;;;;0.65;100.00;94166.19;2121247;27;20027;-85
2021/12/15 01:48:03;;;;;;;10.20;6.60;;;;;;;0.59;100.00;94166.75;2132497;27;20054;-87
2021/12/15 01:49:10;;;;;;;14.57;6.85;;;;;;;0.59;100.00;94164.09;2131565;27;20455;-88
2021/12/15 01:50:12;;;;;;;16.35;6.85;;;;;;;0.62;100.00;94166.09;2123778;27;20023;-85
2021/12/15 01:51:13;;;;;;;15.75;8.05;;;;;;;0.60;100.00;94163.00;2128803;27;20035;-87
2021/12/15 01:52:20;;;;;;;16.63;8.18;;;;;;;0.61;100.00;94164.53;2122877;27;20507;-88
2021/12/15 01:53:21;;;;;;;23.77;8.90;;;;;;;0.60;100.00;94158.50;2122784;27;20502;-87
2021/12/15 01:54:23;;;;;;;14.38;6.90;;;;;;;0.56;100.00;94164.75;2117702;27;20019;-89
2021/12/15 01:55:23;;;;;;;13.35;7.88;;;;;;;0.60;100.00;94158.50;2122894;27;20035;-89
2021/12/15 01:56:27;;;;;;;25.75;8.73;;;;;;;0.71;100.00;94164.13;2123147;27;20015;-89
2021/12/15 01:57:30;;;;;;;17.67;8.40;;;;;;;0.68;100.00;94152.38;2123099;27;20023;-88
2021/12/15 01:58:31;;;;;;;20.50;8.23;;;;;;;0.58;100.00;94158.09;2118900;27;20105;-90
2021/12/15 01:59:33;;;;;;;18.30;8.35;;;;;;;0.61;100.00;94161.91;2118684;27;20030;-89
2021/12/15 02:00:45;;;;;;;28.15;8.52;;;;;;;0.63;100.00;94157.88;2119203;27;20105;-87
2021/12/15 02:01:46;;;;;;;14.85;8.27;;;;;;;0.56;100.00;94160.25;2124438;27;20063;-88
2021/12/15 02:02:49;;;;;;;15.48;8.15;;;;;;;0.54;100.00;94159.06;2131685;27;20030;-87
2021/12/15 02:03:51;;;;;;;29.50;8.45;;;;;;;0.62;100.00;94163.47;2123999;27;20092;-86
2021/12/15 02:04:53;;;;;;;31.02;9.25;;;;;;;0.57;100.00;94167.06;2122016;27;20027;-88
2021/12/15 02:05:55;;;;;;;25.38;8.63;;;;;;;0.58;100.00;94162.59;2123004;27;20495;-87
2021/12/15 02:06:56;;;;;;;24.00;9.05;;;;;;;0.78;100.00;94166.97;2123177;27;20031;-89
2021/12/15 02:07:59;;;;;;;15.70;8.00;;;;;;;0.84;100.00;94163.06;2131528;27;20030;-87
2021/12/15 02:09:02;;;;;;;32.80;8.80;;;;;;;0.73;100.00;94167.19;2134751;27;20091;-89
2021/12/15 02:10:05;;;;;;;16.27;8.40;;;;;;;0.63;100.00;94165.75;2130766;27;20033;-88
2021/12/15 02:11:06;;;;;;;18.80;8.75;;;;;;;0.66;100.00;94164.31;2115828;27;20042;-87
2021/12/15 02:12:08;;;;;;;25.77;8.10;;;;;;;0.67;100.00;94163.25;2118586;27;20562;-88
2021/12/15 02:13:17;;;;;;;23.50;8.95;;;;;;;0.71;100.00;94167.53;2117371;27;20065;-87
2021/12/15 02:14:17;;;;;;;17.60;8.07;;;;;;;0.66;100.00;94162.47;2118121;27;20023;-87
2021/12/15 02:15:25;;;;;;;25.80;7.53;;;;;;;0.71;100.00;94159.63;2128350;27;20042;-87
2021/12/15 02:16:26;;;;;;;28.95;7.95;;;;;;;0.69;100.00;94169.72;2115573;28;20067;-88
2021/12/15 02:17:27;;;;;;;42.40;8.68;;;;;;;0.69;100.00;94169.72;2118289;28;20110;-89
2021/12/15 02:18:30;;;;;;;24.13;8.68;;;;;;;0.68;100.00;94170.03;2127389;27;20468;-89
2021/12/15 02:19:31;;;;;;;22.83;7.70;;;;;;;0.66;100.00;94173.00;2127327;27;20078;-87
2021/12/15 02:20:37;;;;;;;10.50;6.80;;;;;;;0.69;100.00;94176.84;2122714;28;20039;-89
2021/12/15 02:22:05;;;;;;;34.45;8.15;;;;;;;0.68;100.00;94172.69;2132341;27;20026;-87
2021/12/15 02:23:08;;;;;;;28.67;8.10;;;;;;;0.69;100.00;94171.56;2122707;28;20057;-87
2021/12/15 02:24:09;;;;;;;13.18;6.85;;;;;;;0.71;100.00;94166.78;2116133;27;20086;-86
2021/12/15 02:25:12;;;;;;;23.60;8.68;;;;;;;0.66;100.00;94167.75;2122900;28;20027;-89
2021/12/15 02:26:25;;;;;;;13.85;7.28;;;;;;;0.68;100.00;94167.41;2125330;27;20027;-87
2021/12/15 02:27:32;;;;;;;25.67;8.57;;;;;;;0.60;100.00;94176.16;2126941;27;20128;-89
2021/12/15 02:28:37;;;;;;;16.45;7.80;;;;;;;0.59;100.00;94179.91;2117713;28;20056;-87
2021/12/15 02:29:41;;;;;;;30.90;9.05;;;;;;;0.56;100.00;94170.00;2117788;28;20600;-87
2021/12/15 02:34:31;;;;;;;20.30;8.55;;;;;;;0.57;100.00;94172.34;2132632;27;20466;-88
2021/12/15 02:37:40;;;;;;;27.98;8.00;;;;;;;0.58;100.00;94175.72;2131953;27;20122;-88
2021/12/15 02:38:46;;;;;;;29.75;7.32;;;;;;;0.50;100.00;94175.50;2122645;28;20023;-88
2021/12/15 02:40:05;;;;;;;34.03;7.57;;;;;;;0.57;100.00;94169.72;2129977;27;20031;-87
2021/12/15 02:41:25;;;;;;;13.20;6.88;;;;;;;0.53;100.00;94184.59;2133032;27;20062;-87
2021/12/15 02:42:47;;;;;;;22.42;7.43;;;;;;;0.48;100.00;94172.44;2127830;27;20023;-86
2021/12/15 02:44:07;;;;;;;29.13;7.20;;;;;;;0.57;100.00;94182.06;2133347;27;20027;-88
2021/12/15 02:45:19;;;;;;;28.30;6.50;;;;;;;0.58;100.00;94178.38;2124091;27;20031;-88
2021/12/15 02:46:23;;;;;;;18.15;5.88;;;;;;;0.59;100.00;94179.91;2121378;28;20035;-88
2021/12/15 02:47:30;;;;;;;20.35;6.63;;;;;;;0.60;100.00;94179.56;2126801;27;20192;-90
2021/12/15 02:48:34;;;;;;;19.77;6.38;;;;;;;0.66;100.00;94185.38;2119628;27;20023;-87
2021/12/15 02:49:42;;;;;;;23.25;6.40;;;;;;;0.60;100.00;94179.56;2118025;28;20115;-87
2021/12/15 02:50:43;;;;;;;12.45;6.25;;;;;;;0.54;100.00;94178.25;2126581;27;20095;-89
2021/12/15 02:51:52;;;;;;;14.93;5.93;;;;;;;0.63;100.00;94186.81;2120801;28;20023;-89
2021/12/15 02:53:00;;;;;;;12.40;6.68;;;;;;;0.61;100.00;94183.72;2124178;27;20031;-88
2021/12/15 02:54:04;;;;;;;14.23;6.88;;;;;;;0.67;100.00;94184.28;2122844;27;20035;-87
2021/12/15 02:55:09;;;;;;;13.93;5.15;;;;;;;0.70;100.00;94188.88;2123102;27;20038;-87
2021/12/15 02:56:12;;;;;;;22.13;6.93;;;;;;;0.63;100.00;94176.28;2126910;27;20386;-88
2021/12/15 02:57:16;;;;;;;34.83;6.90;;;;;;;0.60;100.00;94173.53;2123183;27;20110;-87
2021/12/15 02:58:19;;;;;;;27.02;7.35;;;;;;;0.56;100.00;94177.91;2126882;27;20026;-87
2021/12/15 02:59:31;;;;;;;14.88;6.50;;;;;;;0.53;100.00;94176.72;2128175;27;20900;-88
2021/12/15 03:00:47;;;;;;;13.65;6.68;;;;;;;0.57;100.00;94177.59;2120657;27;20011;-88
2021/12/15 03:02:10;;;;;;;14.38;6.20;;;;;;;0.61;100.00;94175.81;2117818;28;20023;-90
2021/12/15 03:04:11;;;;;;;10.35;5.93;;;;;;;0.58;100.00;94173.09;2127883;27;20022;-89
2021/12/15 03:04:46;;;;;;;11.25;5.90;;;;;;;0.49;100.00;94178.44;2126942;27;20793;-87
2021/12/15 03:06:03;;;;;;;12.95;5.60;;;;;;;0.54;100.00;94178.25;2128409;27;20039;-87
2021/12/15 03:07:26;;;;;;;15.65;6.32;;;;;;;0.54;100.00;94172.97;2130588;27;20030;-86
2021/12/15 03:16:22;;;;;;;22.73;6.30;;;;;;;0.58;100.00;94181.00;2139529;27;20494;-84
2021/12/15 03:17:25;;;;;;;13.77;6.25;;;;;;;0.56;100.00;94181.31;2136883;27;20030;-86
2021/12/15 03:18:29;;;;;;;23.60;6.22;;;;;;;0.57;100.00;94179.44;2129160;27;20637;-87
2021/12/15 03:19:31;;;;;;;26.40;5.55;;;;;;;0.58;100.00;94181.00;2120547;27;20027;-87
2021/12/15 03:20:42;;;;;;;12.68;6.35;;;;;;;0.63;100.00;94175.53;2128323;27;20153;-86
2021/12/15 03:21:47;;;;;;;20.00;6.22;;;;;;;0.65;100.00;94187.25;2132737;27;20022;-86
2021/12/15 03:22:50;;;;;;;7.53;4.97;;;;;;;0.66;100.00;94188.78;2124749;27;20027;-86
2021/12/15 03:23:56;;;;;;;19.05;6.05;;;;;;;0.74;100.00;94180.00;2120885;27;20027;-85
2021/12/15 03:24:56;;;;;;;69.35;7.20;;;;;;;0.65;100.00;94189.09;2123537;27;20031;-86
2021/12/15 03:25:58;;;;;;;45.55;6.55;;;;;;;0.56;100.00;94176.03;2119530;27;20486;-88
2021/12/15 03:27:07;;;;;;;25.65;6.50;;;;;;;0.57;100.00;94188.13;2119066;27;20452;-89
2021/12/15 03:33:56;;;;;;;8.50;5.32;;;;;;;0.61;100.00;94182.97;2138085;27;20109;-88
2021/12/15 03:35:17;;;;;;;34.45;6.20;;;;;;;0.61;100.00;94181.09;2124692;27;20023;-87
2021/12/15 03:36:34;;;;;;;26.60;5.63;;;;;;;0.61;100.00;94178.47;2124535;27;20027;-87
2021/12/15 03:37:37;;;;;;;26.48;5.47;;;;;;;0.59;100.00;94174.63;2129128;27;20023;-88
2021/12/15 03:38:39;;;;;;;7.70;5.18;;;;;;;0.66;100.00;94172.22;2133062;27;20095;-87
2021/12/15 03:39:44;;;;;;;14.60;4.78;;;;;;;0.66;100.00;94175.63;2127093;27;20054;-90
2021/12/15 03:40:45;;;;;;;17.30;5.50;;;;;;;0.61;100.00;94172.44;2122455;27;20537;-87
2021/12/15 03:41:51;;;;;;;9.25;5.38;;;;;;;0.66;100.00;94175.63;2126275;27;20149;-86
2021/12/15 03:43:01;;;;;;;28.55;5.82;;;;;;;0.71;100.00;94180.69;2131214;27;20027;-87
2021/12/15 03:44:04;;;;;;;47.17;5.75;;;;;;;0.71;100.00;94177.28;2116505;27;20062;-87
2021/12/15 03:45:16;;;;;;;48.05;6.25;;;;;;;0.65;100.00;94181.22;2132979;27;20023;-87
2021/12/15 03:46:17;;;;;;;16.92;5.50;;;;;;;0.67;100.00;94181.66;2130179;27;20070;-88
2021/12/15 03:47:22;;;;;;;7.97;5.40;;;;;;;0.66;100.00;94180.91;2117750;27;20028;-90
2021/12/15 03:48:26;;;;;;;33.88;6.25;;;;;;;0.57;100.00;94184.69;2124844;27;20019;-87
2021/12/15 03:49:27;;;;;;;15.98;4.90;;;;;;;0.66;100.00;94180.09;2124562;27;20125;-86
2021/12/15 03:50:28;;;;;;;19.17;5.95;;;;;;;0.66;100.00;94186.16;2123940;27;20099;-87
2021/12/15 03:51:29;;;;;;;12.95;6.07;;;;;;;0.62;100.00;94180.00;2123906;27;20026;-87
2021/12/15 03:52:29;;;;;;;18.55;6.95;;;;;;;0.62;100.00;94184.50;2128473;27;20019;-89
2021/12/15 03:53:31;;;;;;;23.55;6.82;;;;;;;0.62;100.00;94182.66;2128099;27;20057;-87
2021/12/15 03:54:31;;;;;;;11.45;6.03;;;;;;;0.60;100.00;94179.56;2128219;27;20374;-86
2021/12/15 03:55:34;;;;;;;19.60;6.53;;;;;;;0.57;100.00;94176.81;2132453;27;20054;-87
2021/12/15 03:56:40;;;;;;;12.57;7.00;;;;;;;0.57;100.00;94185.50;2127612;27;20019;-88
2021/12/15 03:57:41;;;;;;;11.90;5.32;;;;;;;0.58;100.00;94181.75;2122007;27;20022;-87
2021/12/15 03:58:42;;;;;;;18.73;7.32;;;;;;;0.59;100.00;94179.91;2123880;27;20060;-89
2021/12/15 03:59:45;;;;;;;19.48;6.18;;;;;;;0.58;100.00;94179.13;2118024;27;20026;-89
2021/12/15 04:00:49;;;;;;;13.55;6.10;;;;;;;0.69;100.00;94190.00;2121964;27;20050;-89
2021/12/15 04:01:53;;;;;;;21.17;5.95;;;;;;;0.63;100.00;94180.78;2117383;27;20032;-87
2021/12/15 04:02:54;;;;;;;13.13;5.95;;;;;;;0.66;100.00;94183.53;2123332;27;20497;-89
2021/12/15 04:03:55;;;;;;;13.38;5.90;;;;;;;0.64;100.00;94185.72;2116239;27;20038;-88
2021/12/15 04:04:56;;;;;;;14.15;7.72;;;;;;;0.64;100.00;94183.06;2115465;28;20027;-87
2021/12/15 04:05:59;;;;;;;17.85;6.85;;;;;;;0.64;100.00;94185.72;2123061;27;20046;-89
2021/12/15 04:06:59;;;;;;;12.02;7.13;;;;;;;0.62;100.00;94185.28;2132054;27;20073;-87
2021/12/15 04:08:00;;;;;;;17.45;9.40;;;;;;;0.62;100.00;94189.78;2123823;27;20106;-87
2021/12/15 04:09:03;;;;;;;20.00;6.57;;;;;;;0.57;100.00;94180.22;2115078;28;20031;-88
2021/12/15 04:10:06;;;;;;;24.67;7.10;;;;;;;0.56;100.00;94189.19;2124406;27;20034;-85
2021/12/15 04:11:10;;;;;;;15.70;5.72;;;;;;;0.58;100.00;94184.38;2131777;27;20035;-89
2021/12/15 04:12:13;;;;;;;28.75;5.80;;;;;;;0.60;100.00;94179.56;2116802;27;20027;-86
2021/12/15 04:13:14;;;;;;;30.90;6.05;;;;;;;0.55;100.00;94182.41;2122798;27;20031;-87
2021/12/15 04:14:20;;;;;;;16.58;5.18;;;;;;;0.52;100.00;94177.00;2117165;27;20054;-89
2021/12/15 04:17:00;;;;;;;22.50;4.60;;;;;;;0.64;100.00;94177.81;2132396;27;20026;-87
2021/12/15 04:17:49;;;;;;;18.70;4.00;;;;;;;0.61;100.00;94182.97;2127699;27;20033;-87
2021/12/15 04:18:50;;;;;;;26.08;4.57;;;;;;;0.60;100.00;94184.06;2125071;27;20034;-87
2021/12/15 04:19:50;;;;;;;26.70;4.75;;;;;;;0.57;100.00;94182.84;2118235;27;20482;-87
2021/12/15 04:20:52;;;;;;;15.45;7.53;;;;;;;0.62;100.00;94184.50;2119156;27;20104;-87
2021/12/15 04:21:56;;;;;;;15.70;6.13;;;;;;;0.58;100.00;94181.75;2122424;27;20709;-87
2021/12/15 04:22:59;;;;;;;22.58;9.35;;;;;;;0.58;100.00;94184.38;2124029;27;20080;-88
2021/12/15 04:24:02;;;;;;;26.42;13.93;;;;;;;0.58;100.00;94184.38;2123596;27;20026;-89
2021/12/15 04:25:12;;;;;;;15.32;11.48;;;;;;;0.73;100.00;94175.84;2123550;27;20121;-87
2021/12/15 04:26:12;;;;;;;;;;;;;;;0.62;100.00;94169.50;2117154;27;20024;-87
2021/12/15 04:27:13;;;;;;;32.08;10.23;;;;;;;0.57;100.00;94171.53;2115164;28;20008;-88
2021/12/15 04:28:21;;;;;;;16.33;7.47;;;;;;;0.58;100.00;94176.50;2115052;28;20016;-87
2021/12/15 04:29:26;;;;;;;13.52;7.18;;;;;;;0.60;100.00;94179.56;2118563;27;20023;-88
2021/12/15 04:30:29;;;;;;;12.57;9.25;;;;;;;0.65;100.00;94179.34;2120460;27;20032;-86
2021/12/15 04:31:32;;;;;;;36.00;10.85;;;;;;;0.64;100.00;94175.19;2127649;27;20093;-86
2021/12/15 04:32:44;;;;;;;18.75;10.63;;;;;;;0.65;100.00;94174.09;2127717;27;20080;-87
2021/12/15 04:33:55;;;;;;;21.27;10.75;;;;;;;0.63;100.00;94180.78;2121854;27;20083;-88
2021/12/15 04:34:56;;;;;;;21.70;9.05;;;;;;;0.70;100.00;94173.91;2130370;27;20061;-87
2021/12/15 04:35:58;;;;;;;25.00;8.50;;;;;;;0.71;100.00;94187.81;2115855;27;20030;-87
2021/12/15 04:36:59;;;;;;;50.95;8.10;;;;;;;0.63;100.00;94184.19;2131307;27;20040;-87
2021/12/15 04:38:00;;;;;;;11.15;7.00;;;;;;;0.65;100.00;94181.22;2123717;27;20019;-87
2021/12/15 04:39:01;;;;;;;48.70;10.15;;;;;;;0.61;100.00;94186.34;2132488;27;20023;-87
2021/12/15 04:40:05;;;;;;;20.30;7.28;;;;;;;0.61;100.00;94180.31;2123566;27;20015;-87
2021/12/15 04:41:09;;;;;;;25.92;7.10;;;;;;;0.60;100.00;94184.81;2123890;27;20130;-88
2021/12/15 04:42:11;;;;;;;25.67;5.57;;;;;;;0.70;100.00;94176.53;2116459;27;20027;-87
2021/12/15 04:43:12;;;;;;;40.38;5.60;;;;;;;0.67;100.00;94181.66;2116874;27;20027;-88
2021/12/15 04:44:15;;;;;;;16.90;5.80;;;;;;;0.61;100.00;94181.09;2123723;27;20083;-89
2021/12/15 04:45:18;;;;;;;28.35;5.35;;;;;;;0.64;100.00;94187.56;2126824;27;20052;-87
2021/12/15 04:46:19;;;;;;;35.80;5.15;;;;;;;0.59;100.00;94187.78;2120236;27;20027;-85
2021/12/15 04:47:19;;;;;;;8.75;5.00;;;;;;;0.64;100.00;94182.31;2129107;27;20540;-89
2021/12/15 04:48:22;;;;;;;38.33;5.80;;;;;;;0.66;100.00;94191.44;2123718;27;20057;-87
2021/12/15 04:49:22;;;;;;;13.18;4.55;;;;;;;0.63;100.00;94189.44;2118285;27;20023;-88
2021/12/15 04:50:26;;;;;;;14.38;4.50;;;;;;;0.62;100.00;94197.66;2121691;27;20106;-87
2021/12/15 04:51:27;;;;;;;16.80;4.47;;;;;;;0.60;100.00;94194.56;2123173;27;20547;-87
2021/12/15 04:52:30;;;;;;;17.88;4.45;;;;;;;0.58;100.00;94192.28;2123079;27;20084;-88
2021/12/15 04:53:31;;;;;;;12.68;5.47;;;;;;;0.56;100.00;94191.06;2123260;27;20019;-88
2021/12/15 04:54:31;;;;;;;18.40;5.13;;;;;;;0.51;100.00;94184.16;2118983;27;20015;-88
2021/12/15 04:55:33;;;;;;;9.98;4.90;;;;;;;0.50;100.00;94191.28;2119173;27;20088;-87
2021/12/15 04:56:34;;;;;;;14.18;3.95;;;;;;;0.65;100.00;94197.00;2114807;27;20019;-89
2021/12/15 04:57:35;;;;;;;10.90;4.30;;;;;;;0.64;100.00;94193.59;2127985;27;20035;-87
2021/12/15 04:58:39;;;;;;;9.20;4.95;;;;;;;0.82;100.00;94186.28;2123385;27;20050;-87
2021/12/15 04:59:40;;;;;;;9.80;5.85;;;;;;;0.70;100.00;94189.69;2123354;27;20038;-87
2021/12/15 05:00:54;;;;;;;18.20;5.18;;;;;;;0.60;100.00;94194.56;2120216;27;20015;-88
2021/12/15 05:01:55;;;;;;;18.80;5.53;;;;;;;0.63;100.00;94183.41;2125292;27;20045;-87
2021/12/15 05:02:58;;;;;;;14.93;5.30;;;;;;;0.69;100.00;94190.75;2123205;27;20042;-87
2021/12/15 05:03:58;;;;;;;18.77;5.32;;;;;;;0.61;100.00;94188.22;2123803;27;20019;-89
2021/12/15 05:04:59;;;;;;;20.95;4.70;;;;;;;0.68;100.00;94185.81;2115194;27;20107;-88
2021/12/15 05:06:02;;;;;;;16.38;4.13;;;;;;;0.72;100.00;94192.75;2123092;27;20023;-87
2021/12/15 05:07:03;;;;;;;14.85;4.35;;;;;;;0.63;100.00;94194.69;2115353;27;20031;-85
2021/12/15 05:08:08;;;;;;;22.02;4.40;;;;;;;0.65;100.00;94189.88;2123249;27;20030;-89
2021/12/15 05:09:09;;;;;;;26.15;4.57;;;;;;;0.60;100.00;94191.94;2122779;27;20035;-88
2021/12/15 05:10:11;;;;;;;9.45;4.07;;;;;;;0.54;100.00;94193.25;2115377;27;20035;-87
2021/12/15 05:11:12;;;;;;;21.95;4.20;;;;;;;0.50;100.00;94193.13;2120945;27;20114;-87
2021/12/15 05:12:12;;;;;;;12.55;4.45;;;;;;;0.56;100.00;94191.81;2116230;27;20027;-89
2021/12/15 05:13:13;;;;;;;6.38;4.10;;;;;;;0.60;100.00;94192.72;2121616;27;20026;-86
2021/12/15 05:14:14;;;;;;;15.18;7.18;;;;;;;0.66;100.00;94191.44;2116328;27;20060;-88
2021/12/15 05:15:15;;;;;;;20.95;8.57;;;;;;;0.70;100.00;94189.69;2118859;27;20446;-87
2021/12/15 05:16:16;;;;;;;40.22;11.93;;;;;;;0.62;100.00;94197.66;2114819;28;20030;-88
2021/12/15 05:17:16;;;;;;;29.30;7.82;;;;;;;0.62;100.00;94195.81;2123220;27;20081;-89
2021/12/15 05:18:17;;;;;;;21.80;6.22;;;;;;;0.64;100.00;94195.47;2123443;27;20507;-88
2021/12/15 05:19:18;;;;;;;40.25;8.43;;;;;;;0.60;100.00;94190.06;2116880;27;20024;-89
2021/12/15 05:20:19;;;;;;;12.55;5.65;;;;;;;0.61;100.00;94198.75;2123452;27;20019;-86
2021/12/15 05:21:22;;;;;;;23.13;7.47;;;;;;;0.69;100.00;94200.50;2128730;27;20026;-88
2021/12/15 05:22:23;;;;;;;22.17;6.50;;;;;;;0.67;100.00;94197.44;2123076;27;20030;-88
2021/12/15 05:23:28;;;;;;;30.20;4.97;;;;;;;0.70;100.00;94197.56;2123123;27;20042;-88
2021/12/15 05:25:29;;;;;;;23.63;5.35;;;;;;;0.56;100.00;94194.44;2123347;27;20110;-87
2021/12/15 05:26:36;;;;;;;13.15;4.53;;;;;;;0.59;100.00;94195.69;2128016;27;20375;-88
2021/12/15 05:27:38;;;;;;;10.18;5.07;;;;;;;0.56;100.00;94193.69;2123048;27;20110;-87
2021/12/15 05:28:39;;;;;;;20.02;4.60;;;;;;;0.53;100.00;94192.50;2119624;27;20055;-86
2021/12/15 05:29:41;;;;;;;5.50;4.50;;;;;;;0.71;100.00;94190.44;2122833;27;20015;-89
2021/12/15 05:30:42;;;;;;;10.00;3.13;;;;;;;0.61;100.00;94188.22;2119309;27;20038;-89
2021/12/15 05:31:42;;;;;;;9.25;3.60;;;;;;;0.62;100.00;94185.28;2115728;27;20440;-86
2021/12/15 05:32:43;;;;;;;35.85;3.88;;;;;;;0.50;100.00;94196.53;2125521;27;20023;-87